createdAt,value
2019-04-26T00:00:10.434Z,15.70
2019-04-26T00:02:47.327Z,15.70
2019-04-26T00:05:16.480Z,15.70
2019-04-26T00:07:45.903Z,15.70
2019-04-26T00:10:28.346Z,15.70
2019-04-26T00:13:01.921Z,15.70
2019-04-26T00:15:48.859Z,15.70
2019-04-26T00:18:18.661Z,15.70
2019-04-26T00:20:47.760Z,15.70
2019-04-26T00:23:16.750Z,15.70
2019-04-26T00:25:45.712Z,15.70
2019-04-26T00:28:14.686Z,15.70
2019-04-26T00:30:43.725Z,15.70
2019-04-26T00:33:13.529Z,15.70
2019-04-26T00:35:47.789Z,15.70
2019-04-26T00:38:14.128Z,15.70
2019-04-26T00:40:44.429Z,15.70
2019-04-26T00:43:14.306Z,15.60
2019-04-26T00:45:43.877Z,15.60
2019-04-26T00:48:15.424Z,15.60
2019-04-26T00:50:45.114Z,15.60
2019-04-26T00:53:16.036Z,15.60
2019-04-26T00:55:45.155Z,15.60
2019-04-26T00:58:16.331Z,15.60
2019-04-26T01:00:45.418Z,15.60
2019-04-26T01:03:15.360Z,15.50
2019-04-26T01:05:44.820Z,15.60
2019-04-26T01:08:13.712Z,15.50
2019-04-26T01:10:42.563Z,15.50
2019-04-26T01:13:11.579Z,15.50
2019-04-26T01:15:40.560Z,15.40
2019-04-26T01:18:09.482Z,15.40
2019-04-26T01:20:40.308Z,15.40
2019-04-26T01:23:12.382Z,15.30
2019-04-26T01:26:02.520Z,15.30
2019-04-26T01:28:36.948Z,15.30
2019-04-26T01:31:07.864Z,15.20
2019-04-26T01:33:38.282Z,15.20
2019-04-26T01:36:13.270Z,15.20
2019-04-26T01:38:39.216Z,15.20
2019-04-26T01:41:12.187Z,15.20
2019-04-26T01:43:59.518Z,15.20
2019-04-26T01:46:35.442Z,15.10
2019-04-26T01:49:10.295Z,15.10
2019-04-26T01:51:41.441Z,15.10
2019-04-26T01:54:13.186Z,15.00
2019-04-26T01:56:42.519Z,15.00
2019-04-26T01:59:14.444Z,15.00
2019-04-26T02:01:47.901Z,15.00
2019-04-26T02:04:16.976Z,15.00
2019-04-26T02:06:46.054Z,15.00
2019-04-26T02:09:16.811Z,15.00
2019-04-26T02:11:45.911Z,15.00
2019-04-26T02:14:15.418Z,15.00
2019-04-26T02:16:44.538Z,15.00
2019-04-26T02:19:13.597Z,15.00
2019-04-26T02:21:44.596Z,15.00
2019-04-26T02:24:21.429Z,15.00
2019-04-26T02:26:50.741Z,15.00
2019-04-26T02:29:28.563Z,14.90
2019-04-26T02:32:03.657Z,14.90
2019-04-26T02:34:37.160Z,14.90
2019-04-26T02:37:08.231Z,14.90
2019-04-26T02:39:39.933Z,14.90
2019-04-26T02:42:14.650Z,14.90
2019-04-26T02:44:53.712Z,14.80
2019-04-26T02:47:53.845Z,14.80
2019-04-26T02:50:31.154Z,14.80
2019-04-26T02:53:08.534Z,14.80
2019-04-26T02:55:55.257Z,14.80
2019-04-26T02:58:28.267Z,14.80
2019-04-26T03:01:00.081Z,14.80
2019-04-26T03:03:31.686Z,14.80
2019-04-26T03:06:02.137Z,14.80
2019-04-26T03:08:34.035Z,14.70
2019-04-26T03:11:06.477Z,14.70
2019-04-26T03:13:43.732Z,14.80
2019-04-26T03:16:29.076Z,14.80
2019-04-26T03:19:11.589Z,14.70
2019-04-26T03:21:45.968Z,14.80
2019-04-26T03:24:34.554Z,14.80
2019-04-26T03:27:09.486Z,14.80
2019-04-26T03:30:19.535Z,14.70
2019-04-26T03:32:57.316Z,14.70
2019-04-26T03:35:34.688Z,14.70
2019-04-26T03:38:21.039Z,14.70
2019-04-26T03:41:12.421Z,14.70
2019-04-26T03:43:59.452Z,14.60
2019-04-26T03:46:31.453Z,14.70
2019-04-26T03:49:20.006Z,14.60
2019-04-26T03:52:12.947Z,14.60
2019-04-26T03:54:45.019Z,14.50
2019-04-26T03:57:30.282Z,14.50
2019-04-26T04:00:03.793Z,14.50
2019-04-26T04:02:46.814Z,14.50
2019-04-26T04:05:20.508Z,14.50
2019-04-26T04:07:52.240Z,14.50
2019-04-26T04:10:37.424Z,14.50
2019-04-26T04:13:19.757Z,14.50
2019-04-26T04:15:51.740Z,14.40
2019-04-26T04:18:23.991Z,14.40
2019-04-26T04:21:34.530Z,14.40
2019-04-26T04:24:06.359Z,14.40
2019-04-26T04:27:02.538Z,14.40
2019-04-26T04:29:55.240Z,14.40
2019-04-26T04:32:43.856Z,14.30
2019-04-26T04:35:13.768Z,14.30
2019-04-26T04:38:17.177Z,14.30
2019-04-26T04:41:15.746Z,14.40
2019-04-26T04:44:04.948Z,14.40
2019-04-26T04:46:49.159Z,14.40
2019-04-26T04:49:36.096Z,14.40
2019-04-26T04:52:15.152Z,14.40
2019-04-26T04:55:08.288Z,14.40
2019-04-26T04:58:04.109Z,14.30
2019-04-26T05:00:55.016Z,14.40
2019-04-26T05:03:45.107Z,14.50
2019-04-26T05:06:39.564Z,14.50
2019-04-26T05:09:10.846Z,14.50
2019-04-26T05:12:00.730Z,14.60
2019-04-26T05:15:07.407Z,14.70
2019-04-26T05:17:56.987Z,14.80
2019-04-26T05:20:34.271Z,15.00
2019-04-26T05:23:08.999Z,15.00
2019-04-26T05:25:45.199Z,15.20
2019-04-26T05:28:51.783Z,15.30
2019-04-26T05:31:27.699Z,15.40
2019-04-26T05:34:00.490Z,15.50
2019-04-26T05:36:43.783Z,15.60
2019-04-26T05:39:24.449Z,15.70
2019-04-26T05:42:03.606Z,15.90
2019-04-26T05:44:42.769Z,16.10
2019-04-26T05:47:41.636Z,16.30
2019-04-26T05:50:40.939Z,16.40
2019-04-26T05:53:23.065Z,16.70
2019-04-26T05:56:11.495Z,17.30
2019-04-26T05:59:01.220Z,18.00
2019-04-26T06:02:02.022Z,19.00
2019-04-26T06:04:50.795Z,20.10
2019-04-26T06:08:07.503Z,21.10
2019-04-26T06:10:51.540Z,21.70
2019-04-26T06:13:31.719Z,21.80
2019-04-26T06:16:13.563Z,21.90
2019-04-26T06:19:12.792Z,21.60
2019-04-26T06:21:53.838Z,21.40
2019-04-26T06:24:37.985Z,21.00
2019-04-26T06:27:27.538Z,20.80
2019-04-26T06:30:03.189Z,20.60
2019-04-26T06:33:03.231Z,20.40
2019-04-26T06:35:33.762Z,20.30
2019-04-26T06:38:13.293Z,20.10
2019-04-26T06:41:15.122Z,19.90
2019-04-26T06:43:51.925Z,19.90
2019-04-26T06:46:34.586Z,20.00
2019-04-26T06:49:21.588Z,20.00
2019-04-26T06:52:08.615Z,20.00
2019-04-26T06:55:02.208Z,20.00
2019-04-26T06:58:04.845Z,19.90
2019-04-26T07:01:05.513Z,19.90
2019-04-26T07:03:59.764Z,19.80
2019-04-26T07:06:46.670Z,19.80
2019-04-26T07:09:18.319Z,19.80
2019-04-26T07:12:24.525Z,19.90
2019-04-26T07:15:08.573Z,20.00
2019-04-26T07:17:58.304Z,20.30
2019-04-26T07:20:33.452Z,20.50
2019-04-26T07:23:31.132Z,20.60
2019-04-26T07:26:14.877Z,20.90
2019-04-26T07:29:00.085Z,21.10
2019-04-26T07:31:53.157Z,21.30
2019-04-26T07:34:49.249Z,21.70
2019-04-26T07:37:45.420Z,21.90
2019-04-26T07:40:45.467Z,22.10
2019-04-26T07:43:33.654Z,22.30
2019-04-26T07:46:22.035Z,22.50
2019-04-26T07:49:21.123Z,22.70
2019-04-26T07:52:04.923Z,22.80
2019-04-26T07:55:03.184Z,23.10
2019-04-26T07:58:01.266Z,23.20
2019-04-26T08:00:49.798Z,23.40
2019-04-26T08:03:31.667Z,23.60
2019-04-26T08:06:12.232Z,23.60
2019-04-26T08:08:47.227Z,23.60
2019-04-26T08:11:21.673Z,23.60
2019-04-26T08:14:05.198Z,23.70
2019-04-26T08:16:38.798Z,23.80
2019-04-26T08:19:29.703Z,23.80
2019-04-26T08:22:15.241Z,23.90
2019-04-26T08:24:33.969Z,23.90
2019-04-26T08:27:18.701Z,23.90
2019-04-26T08:29:44.758Z,23.90
2019-04-26T08:32:20.851Z,23.90
2019-04-26T08:35:08.235Z,24.00
2019-04-26T08:37:40.253Z,24.30
2019-04-26T08:40:16.293Z,24.60
2019-04-26T08:42:45.964Z,24.80
2019-04-26T08:45:24.314Z,25.00
2019-04-26T08:47:55.071Z,25.20
2019-04-26T08:50:26.483Z,25.40
2019-04-26T08:52:57.945Z,25.50
2019-04-26T08:55:29.181Z,25.50
2019-04-26T08:58:00.920Z,25.60
2019-04-26T09:00:40.156Z,25.70
2019-04-26T09:03:13.505Z,26.00
2019-04-26T09:05:54.948Z,26.10
2019-04-26T09:08:26.278Z,26.40
2019-04-26T09:10:57.667Z,26.50
2019-04-26T09:13:29.530Z,26.50
2019-04-26T09:16:01.376Z,26.30
2019-04-26T09:18:42.060Z,26.00
2019-04-26T09:21:00.701Z,26.00
2019-04-26T09:23:39.800Z,25.80
2019-04-26T09:26:08.658Z,25.50
2019-04-26T09:28:40.651Z,25.50
2019-04-26T09:31:15.373Z,25.80
2019-04-26T09:34:06.414Z,26.00
2019-04-26T09:36:35.556Z,26.00
2019-04-26T09:39:08.257Z,26.00
2019-04-26T09:41:37.548Z,26.20
2019-04-26T09:44:10.936Z,26.30
2019-04-26T09:46:44.407Z,26.20
2019-04-26T09:49:17.799Z,26.00
2019-04-26T09:51:48.050Z,25.80
2019-04-26T09:54:17.591Z,25.80
2019-04-26T09:56:46.482Z,26.00
2019-04-26T09:59:15.246Z,26.10
2019-04-26T10:01:44.065Z,26.30
2019-04-26T10:04:12.934Z,26.60
2019-04-26T10:06:41.762Z,26.90
2019-04-26T10:09:17.323Z,27.10
2019-04-26T10:11:48.834Z,27.40
2019-04-26T10:14:19.194Z,27.80
2019-04-26T10:16:52.548Z,27.90
2019-04-26T10:19:23.010Z,28.10
2019-04-26T10:21:51.877Z,28.30
2019-04-26T10:24:20.695Z,28.40
2019-04-26T10:26:49.514Z,28.30
2019-04-26T10:29:21.714Z,28.20
2019-04-26T10:31:51.849Z,28.00
2019-04-26T10:34:19.307Z,28.10
2019-04-26T10:36:48.072Z,28.00
2019-04-26T10:39:19.316Z,28.00
2019-04-26T10:41:48.230Z,28.20
2019-04-26T10:44:17.149Z,28.50
2019-04-26T10:46:55.466Z,28.70
2019-04-26T10:49:38.610Z,28.80
2019-04-26T10:52:12.065Z,29.00
2019-04-26T10:54:44.599Z,28.90
2019-04-26T10:57:15.073Z,28.90
2019-04-26T10:59:45.601Z,29.00
2019-04-26T11:02:16.804Z,29.30
2019-04-26T11:04:45.638Z,29.50
2019-04-26T11:07:14.522Z,29.70
2019-04-26T11:09:43.374Z,29.70
2019-04-26T11:12:14.696Z,29.80
2019-04-26T11:14:43.498Z,29.90
2019-04-26T11:17:16.053Z,29.90
2019-04-26T11:19:44.315Z,29.80
2019-04-26T11:22:13.238Z,29.60
2019-04-26T11:24:42.047Z,29.40
2019-04-26T11:27:11.240Z,29.30
2019-04-26T11:29:40.166Z,29.60
2019-04-26T11:32:09.280Z,29.60
2019-04-26T11:34:38.116Z,29.30
2019-04-26T11:37:06.939Z,29.30
2019-04-26T11:39:36.580Z,29.50
2019-04-26T11:42:07.992Z,29.70
2019-04-26T11:44:36.741Z,29.80
2019-04-26T11:47:07.741Z,29.80
2019-04-26T11:49:37.341Z,29.80
2019-04-26T11:52:06.532Z,29.90
2019-04-26T11:54:35.378Z,29.90
2019-04-26T11:57:04.308Z,29.90
2019-04-26T11:59:33.071Z,29.80
2019-04-26T12:02:01.966Z,29.90
2019-04-26T12:04:49.547Z,30.00
2019-04-26T12:07:35.854Z,30.10
2019-04-26T12:10:11.347Z,30.10
2019-04-26T12:12:43.184Z,29.80
2019-04-26T12:15:10.918Z,29.80
2019-04-26T12:17:39.771Z,29.60
2019-04-26T12:20:08.690Z,29.40
2019-04-26T12:22:39.412Z,29.40
2019-04-26T12:25:08.477Z,29.30
2019-04-26T12:27:37.542Z,29.10
2019-04-26T12:30:07.490Z,28.90
2019-04-26T12:32:36.278Z,28.80
2019-04-26T12:35:05.309Z,28.70
2019-04-26T12:37:34.072Z,28.70
2019-04-26T12:40:02.844Z,28.60
2019-04-26T12:42:31.747Z,28.60
2019-04-26T12:45:04.857Z,28.50
2019-04-26T12:47:38.606Z,28.40
2019-04-26T12:50:06.632Z,28.30
2019-04-26T12:52:37.421Z,28.40
2019-04-26T12:55:06.377Z,28.50
2019-04-26T12:57:36.460Z,28.60
2019-04-26T13:00:06.971Z,28.70
2019-04-26T13:02:35.824Z,28.60
2019-04-26T13:05:05.280Z,28.50
2019-04-26T13:07:34.116Z,28.50
2019-04-26T13:10:06.975Z,28.50
2019-04-26T13:12:37.436Z,28.60
2019-04-26T13:16:01.047Z,28.70
2019-04-26T13:18:30.949Z,28.80
2019-04-26T13:21:02.872Z,28.90
2019-04-26T13:23:31.289Z,28.90
2019-04-26T13:26:01.593Z,28.90
2019-04-26T13:28:30.580Z,29.00
2019-04-26T13:31:01.989Z,29.20
2019-04-26T13:33:29.971Z,29.20
2019-04-26T13:36:03.007Z,29.30
2019-04-26T13:38:29.202Z,29.20
2019-04-26T13:40:59.549Z,29.20
2019-04-26T13:43:28.843Z,29.10
2019-04-26T13:46:11.612Z,29.10
2019-04-26T13:48:43.829Z,29.00
2019-04-26T13:51:16.613Z,29.10
2019-04-26T13:53:45.448Z,29.00
2019-04-26T13:56:14.268Z,29.00
2019-04-26T13:58:43.161Z,29.00
2019-04-26T14:01:14.591Z,28.90
2019-04-26T14:03:42.936Z,28.90
2019-04-26T14:06:11.835Z,28.90
2019-04-26T14:08:40.593Z,28.90
2019-04-26T14:11:09.412Z,28.90
2019-04-26T14:13:38.359Z,28.80
2019-04-26T14:16:07.476Z,28.70
2019-04-26T14:18:38.961Z,28.70
2019-04-26T14:21:06.812Z,28.70
2019-04-26T14:23:49.506Z,28.60
2019-04-26T14:26:20.784Z,28.70
2019-04-26T14:28:49.651Z,28.60
2019-04-26T14:31:18.504Z,28.70
2019-04-26T14:33:47.442Z,28.80
2019-04-26T14:36:18.034Z,28.80
2019-04-26T14:38:46.806Z,28.90
2019-04-26T14:41:21.888Z,28.80
2019-04-26T14:43:47.123Z,28.80
2019-04-26T14:46:16.383Z,28.90
2019-04-26T14:49:00.334Z,28.80
2019-04-26T14:51:17.000Z,28.70
2019-04-26T14:53:46.352Z,28.60
2019-04-26T14:56:15.181Z,28.40
2019-04-26T14:58:44.020Z,28.20
2019-04-26T15:01:17.214Z,28.00
2019-04-26T15:03:51.537Z,27.70
2019-04-26T15:06:23.805Z,27.50
2019-04-26T15:08:53.139Z,27.50
2019-04-26T15:11:22.925Z,27.50
2019-04-26T15:13:51.969Z,27.40
2019-04-26T15:16:22.753Z,27.50
2019-04-26T15:18:52.562Z,27.50
2019-04-26T15:21:22.806Z,27.60
2019-04-26T15:23:55.290Z,27.60
2019-04-26T15:26:25.447Z,27.70
2019-04-26T15:28:52.792Z,28.00
2019-04-26T15:31:24.892Z,28.10
2019-04-26T15:33:52.766Z,28.20
2019-04-26T15:36:23.239Z,28.30
2019-04-26T15:38:52.810Z,28.30
2019-04-26T15:41:26.094Z,28.30
2019-04-26T15:43:59.464Z,28.40
2019-04-26T15:46:48.427Z,28.40
2019-04-26T15:49:36.846Z,28.30
2019-04-26T15:52:05.527Z,28.30
2019-04-26T15:54:34.382Z,28.30
2019-04-26T15:57:06.365Z,28.40
2019-04-26T15:59:34.783Z,28.30
2019-04-26T16:02:03.629Z,28.20
2019-04-26T16:04:32.582Z,28.20
2019-04-26T16:07:02.489Z,28.10
2019-04-26T16:09:32.429Z,28.10
2019-04-26T16:12:03.389Z,28.10
2019-04-26T16:14:36.666Z,27.90
2019-04-26T16:17:06.397Z,27.80
2019-04-26T16:19:33.097Z,27.70
2019-04-26T16:22:02.968Z,27.70
2019-04-26T16:24:34.135Z,27.70
2019-04-26T16:27:02.813Z,27.70
2019-04-26T16:29:33.351Z,27.50
2019-04-26T16:32:12.571Z,27.40
2019-04-26T16:35:00.695Z,27.30
2019-04-26T16:37:30.827Z,27.20
2019-04-26T16:39:59.596Z,27.30
2019-04-26T16:42:28.515Z,27.10
2019-04-26T16:45:04.103Z,26.90
2019-04-26T16:47:27.796Z,26.90
2019-04-26T16:50:01.025Z,26.80
2019-04-26T16:52:27.043Z,26.70
2019-04-26T16:55:02.389Z,26.70
2019-04-26T16:57:26.507Z,26.70
2019-04-26T16:59:59.754Z,26.60
2019-04-26T17:02:28.097Z,26.40
2019-04-26T17:04:57.332Z,26.20
2019-04-26T17:07:27.327Z,26.00
2019-04-26T17:09:59.333Z,25.80
2019-04-26T17:12:26.942Z,25.70
2019-04-26T17:14:55.853Z,25.60
2019-04-26T17:17:24.641Z,25.60
2019-04-26T17:19:53.435Z,25.40
2019-04-26T17:22:23.804Z,25.30
2019-04-26T17:24:56.728Z,25.10
2019-04-26T17:27:26.563Z,24.90
2019-04-26T17:29:55.439Z,24.80
2019-04-26T17:32:24.319Z,24.60
2019-04-26T17:34:54.496Z,24.50
2019-04-26T17:37:26.561Z,24.40
2019-04-26T17:39:55.450Z,24.40
2019-04-26T17:42:25.163Z,24.30
2019-04-26T17:44:57.650Z,24.20
2019-04-26T17:47:28.239Z,24.10
2019-04-26T17:49:57.550Z,24.00
2019-04-26T17:52:29.746Z,23.90
2019-04-26T17:54:57.693Z,23.80
2019-04-26T17:57:34.893Z,23.70
2019-04-26T18:00:07.314Z,23.60
2019-04-26T18:02:41.390Z,23.60
2019-04-26T18:05:02.929Z,23.40
2019-04-26T18:07:40.593Z,23.30
2019-04-26T18:10:04.713Z,23.20
2019-04-26T18:12:32.613Z,23.00
2019-04-26T18:15:06.254Z,22.90
2019-04-26T18:17:40.113Z,22.80
2019-04-26T18:20:19.359Z,22.70
2019-04-26T18:22:49.836Z,22.60
2019-04-26T18:25:18.671Z,22.50
2019-04-26T18:27:47.568Z,22.30
2019-04-26T18:30:16.929Z,22.10
2019-04-26T18:32:47.754Z,22.00
2019-04-26T18:35:16.918Z,21.90
2019-04-26T18:37:46.106Z,21.90
2019-04-26T18:40:14.995Z,21.80
2019-04-26T18:42:43.896Z,21.80
2019-04-26T18:45:13.947Z,21.70
2019-04-26T18:47:43.862Z,21.60
2019-04-26T18:50:13.760Z,21.50
2019-04-26T18:53:11.104Z,21.50
2019-04-26T18:55:46.571Z,21.40
2019-04-26T18:58:15.374Z,21.30
2019-04-26T19:00:44.607Z,21.20
2019-04-26T19:03:26.186Z,21.20
2019-04-26T19:05:54.224Z,21.10
2019-04-26T19:08:27.460Z,21.00
2019-04-26T19:11:00.708Z,20.90
2019-04-26T19:13:30.895Z,20.80
2019-04-26T19:16:18.267Z,20.70
2019-04-26T19:18:56.964Z,20.60
2019-04-26T19:21:42.852Z,20.60
2019-04-26T19:24:19.357Z,20.60
2019-04-26T19:26:50.053Z,20.40
2019-04-26T19:29:18.510Z,20.40
2019-04-26T19:31:46.738Z,20.30
2019-04-26T19:34:17.758Z,20.20
2019-04-26T19:36:46.005Z,20.10
2019-04-26T19:39:15.022Z,20.10
2019-04-26T19:41:44.036Z,20.00
2019-04-26T19:44:14.618Z,19.90
2019-04-26T19:46:45.205Z,19.80
2019-04-26T19:49:33.494Z,19.70
2019-04-26T19:52:13.676Z,19.60
2019-04-26T19:54:44.114Z,19.50
2019-04-26T19:57:17.573Z,19.40
2019-04-26T19:59:46.375Z,19.40
2019-04-26T20:02:15.503Z,19.40
2019-04-26T20:04:44.486Z,19.30
2019-04-26T20:07:14.619Z,19.20
2019-04-26T20:09:43.911Z,19.20
2019-04-26T20:12:12.890Z,19.10
2019-04-26T20:14:49.124Z,19.10
2019-04-26T20:17:13.238Z,19.10
2019-04-26T20:19:42.852Z,19.10
2019-04-26T20:22:11.713Z,19.00
2019-04-26T20:24:41.330Z,19.00
2019-04-26T20:27:14.061Z,19.00
2019-04-26T20:29:47.466Z,18.90
2019-04-26T20:32:16.568Z,18.90
2019-04-26T20:34:49.380Z,18.80
2019-04-26T20:37:23.105Z,18.80
2019-04-26T20:39:47.067Z,18.80
2019-04-26T20:42:16.086Z,18.70
2019-04-26T20:44:51.189Z,18.70
2019-04-26T20:47:17.668Z,18.60
2019-04-26T20:49:49.694Z,18.50
2019-04-26T20:52:20.852Z,18.40
2019-04-26T20:54:51.192Z,18.40
2019-04-26T20:57:17.595Z,18.30
2019-04-26T20:59:46.432Z,18.30
2019-04-26T21:02:18.782Z,18.30
2019-04-26T21:04:46.237Z,18.20
2019-04-26T21:07:15.338Z,18.30
2019-04-26T21:09:44.343Z,18.20
2019-04-26T21:12:17.657Z,18.20
2019-04-26T21:14:45.629Z,18.10
2019-04-26T21:17:19.473Z,18.10
2019-04-26T21:19:49.963Z,17.90
2019-04-26T21:22:22.456Z,17.90
2019-04-26T21:25:06.990Z,17.80
2019-04-26T21:27:52.779Z,17.70
2019-04-26T21:30:23.270Z,17.60
2019-04-26T21:33:06.056Z,17.50
2019-04-26T21:35:52.975Z,17.50
2019-04-26T21:38:30.594Z,17.50
2019-04-26T21:41:11.687Z,17.50
2019-04-26T21:43:43.696Z,17.40
2019-04-26T21:46:18.469Z,17.40
2019-04-26T21:48:44.574Z,17.30
2019-04-26T21:51:16.091Z,17.20
2019-04-26T21:53:45.318Z,17.20
2019-04-26T21:56:14.830Z,17.20
2019-04-26T21:58:45.985Z,17.20
2019-04-26T22:01:19.080Z,17.10
2019-04-26T22:03:54.229Z,17.00
2019-04-26T22:06:19.939Z,17.00
2019-04-26T22:08:55.664Z,17.00
2019-04-26T22:11:23.169Z,17.10
2019-04-26T22:13:59.585Z,17.10
2019-04-26T22:16:38.071Z,17.10
2019-04-26T22:19:23.285Z,17.00
2019-04-26T22:22:08.514Z,16.90
2019-04-26T22:24:43.420Z,16.80
2019-04-26T22:27:13.260Z,16.60
2019-04-26T22:29:43.654Z,16.40
2019-04-26T22:32:15.913Z,16.20
2019-04-26T22:34:46.192Z,15.90
2019-04-26T22:37:18.913Z,15.60
2019-04-26T22:39:45.306Z,15.50
2019-04-26T22:42:14.519Z,15.30
2019-04-26T22:44:45.044Z,15.10
2019-04-26T22:47:23.808Z,15.00
2019-04-26T22:49:52.557Z,14.90
2019-04-26T22:52:23.058Z,14.70
2019-04-26T22:54:53.748Z,14.50
2019-04-26T22:57:23.311Z,14.40
2019-04-26T22:59:53.513Z,14.50
2019-04-26T23:02:27.227Z,14.50
2019-04-26T23:04:55.919Z,14.50
2019-04-26T23:07:26.151Z,14.50
2019-04-26T23:09:55.571Z,14.50
2019-04-26T23:12:29.485Z,14.40
2019-04-26T23:15:03.237Z,14.40
2019-04-26T23:17:36.573Z,14.40
2019-04-26T23:20:16.954Z,14.30
2019-04-26T23:22:46.043Z,14.30
2019-04-26T23:25:15.031Z,14.30
2019-04-26T23:27:44.020Z,14.30
2019-04-26T23:30:14.295Z,14.30
2019-04-26T23:32:43.558Z,14.20
2019-04-26T23:35:13.754Z,14.20
2019-04-26T23:37:43.074Z,14.10
2019-04-26T23:40:11.952Z,14.00
2019-04-26T23:42:41.179Z,14.00
2019-04-26T23:45:12.398Z,14.00
2019-04-26T23:47:40.666Z,14.00
2019-04-26T23:50:09.687Z,14.00
2019-04-26T23:52:38.670Z,14.00
2019-04-26T23:55:09.067Z,14.00
2019-04-26T23:57:38.309Z,14.00
